Πρόβλεψη-Ειδοποίηση

Όπως φαίνεται από τα δεδομένα του μετεωρολογικού σταθμού, επικρατεί υψηλή σχετικά υγρασία κατά την διάρκεια της νύχτας και των πρώτων πρωινών ωρών, ενώ παράλληλα παρατηρείται άνοδος της θερμοκρασίας κατά την διάρκεια της ημέρας. Αυτά σε συνδυασμό με την απουσία ανέμου και τα συνεχή ποτίσματα από τους καλλιεργητές δημιουργούν ένα φιλμ νερού στην επιφάνεια των φύλλων και έτσι αναπτύσσονται οι κατάλληλες και ευνοϊκές συνθήκες για την ανάπτυξη του περονοσπόρου. Τα φυτά της πατάτας βρίσκονται σε προχωρημένο στάδιο ανάπτυξης και είναι ιδιαίτερα ευπαθή σε προσβολές από το παθογόνο. Πράγματι έχουν ήδη εμφανιστεί τα πρώτα συμπτώματα προσβολής από περονόσπορο στην ευρύτερη περιοχή.

Άμεσα συνιστάται η διαρκής και ιδιαιτέρως προσεκτική εφαρμογή των εγκεκριμένων φυτοπροστατευτικών προϊόντων για την καταπολέμηση του περονοσπόρου. Ιδιαίτερο βάρος να δοθεί στην χρήση διασυστηματικών φυτοπροστατευτικών προϊόντων που δρουν θεραπευτικά.

Μπορείτε να κατεβάσετε το excel πατώντας εδώ.

Μπορείτε να κατεβάσετε όλα τα αρχεία μας πατώντας εδώ.

HUMIDITY

 

PRESSURE

RAIN

TEMPERATURE

WIND

WINDCHILL

 

No Time Interval(mi) Indoor Humidity(%) Indoor Temperature(°C) Outdoor Humidity(%) Outdoor Temperature(°C) Absolute Pressure(Hpa) Wind(km/h) Gust(km/h) Direction Relative Pressure(Hpa)
1 14/4/2016 21:54 31 45 23.6 52 18.5 1008.6 7.2 13.3 NE 1013.1
2 14/4/2016 22:04 10 45 23.6 50 18.5 1008.4 9.7 13.3 NE 1012.9
3 14/4/2016 22:14 10 45 23.5 45 19.0 1008.2 11.2 14.8 NE 1012.7
4 14/4/2016 22:24 10 45 23.5 44 19.4 1008.2 8.6 13.3 E 1012.7
5 14/4/2016 22:34 10 45 23.4 39 19.7 1008.1 9.7 14.8 NE 1012.6
6 14/4/2016 22:44 10 45 23.3 38 19.9 1008.0 7.2 11.2 NE 1012.5
7 14/4/2016 22:54 10 45 23.3 38 19.8 1008.1 6.1 8.6 NE 1012.6
8 14/4/2016 23:04 10 45 23.2 38 19.7 1008.0 5.0 6.1 E 1012.5
9 14/4/2016 23:14 10 45 23.2 41 19.1 1008.2 0.0 2.5 NE 1012.7
10 14/4/2016 23:24 10 45 23.1 44 18.5 1008.4 1.1 2.5 E 1012.9
11 14/4/2016 23:34 10 45 23.0 45 18.0 1008.6 0.0 0.0 E 1013.1
12 14/4/2016 23:44 10 45 23.0 55 16.7 1009.3 6.1 8.6 S 1013.8
13 14/4/2016 23:54 10 43 22.9 65 15.8 1009.1 2.5 3.6 S 1013.6
14 15/4/2016 0:04 10 43 22.9 74 15.7 1009.1 2.5 3.6 SE 1013.6
15 15/4/2016 0:14 10 43 22.8 77 15.8 1009.1 2.5 3.6 E 1013.6
16 15/4/2016 0:24 10 43 22.8 77 15.9 1009.3 1.1 3.6 SE 1013.8
17 15/4/2016 0:34 10 43 22.8 76 16.0 1009.3 5.0 6.1 NE 1013.8
18 15/4/2016 0:44 10 43 22.7 76 16.3 1009.2 6.1 8.6 NE 1013.7
19 15/4/2016 0:54 10 44 22.7 77 16.4 1009.1 6.1 11.2 E 1013.6
20 15/4/2016 1:04 10 44 22.6 78 16.4 1009.2 6.1 8.6 NE 1013.7
21 15/4/2016 1:14 10 44 22.6 80 16.3 1009.1 3.6 6.1 E 1013.6
22 15/4/2016 1:24 10 44 22.5 82 16.4 1009.1 2.5 5.0 NE 1013.6
23 15/4/2016 1:34 10 45 22.5 82 16.3 1009.1 3.6 6.1 NE 1013.6
24 15/4/2016 1:44 10 45 22.5 83 16.3 1009.2 2.5 3.6 NE 1013.7
25 15/4/2016 1:54 10 45 22.4 83 16.1 1009.3 2.5 3.6 NE 1013.8
26 15/4/2016 2:04 10 45 22.4 85 15.9 1009.2 1.1 5.0 SE 1013.7
27 15/4/2016 2:14 10 45 22.4 85 15.7 1009.2 2.5 3.6 NEE 1013.7
28 15/4/2016 2:24 10 46 22.3 85 15.5 1009.2 1.1 2.5 E 1013.7
29 15/4/2016 2:34 10 46 22.3 85 15.1 1009.1 1.1 3.6 E 1013.6
30 15/4/2016 2:44 10 46 22.2 86 15.3 1009.1 2.5 3.6 E 1013.6
31 15/4/2016 2:54 10 46 22.2 86 15.4 1009.4 0.0 0.0 S 1013.9
32 15/4/2016 3:04 10 47 22.2 85 15.0 1009.4 0.0 0.0 S 1013.9
33 15/4/2016 3:14 10 47 22.2 87 14.6 1009.4 0.0 0.0 NW 1013.9
34 15/4/2016 3:24 10 47 22.1 88 14.5 1009.4 0.0 1.1 NE 1013.9
35 15/4/2016 3:34 10 47 22.0 89 14.6 1009.3 2.5 3.6 N 1013.8
36 15/4/2016 3:44 10 48 21.9 88 14.5 1009.3 2.5 3.6 E 1013.8
37 15/4/2016 3:54 10 49 21.9 88 14.4 1009.4 1.1 3.6 NEE 1013.9
38 15/4/2016 4:04 10 49 21.9 88 14.2 1009.4 1.1 2.5 E 1013.9
39 15/4/2016 4:14 10 49 21.9 89 14.1 1009.4 1.1 2.5 W 1013.9
40 15/4/2016 4:24 10 49 21.7 89 14.1 1009.5 1.1 2.5 NE 1014.0
41 15/4/2016 4:34 10 50 21.7 88 14.0 1009.5 2.5 3.6 NE 1014.0
42 15/4/2016 4:44 10 50 21.7 88 14.0 1009.5 0.0 2.5 W 1014.0
43 15/4/2016 4:54 10 50 21.7 88 14.1 1009.4 2.5 5.0 NE 1013.9
44 15/4/2016 5:04 10 50 21.6 87 14.0 1009.5 1.1 3.6 E 1014.0
45 15/4/2016 5:14 10 51 21.6 87 13.8 1009.5 3.6 6.1 E 1014.0
46 15/4/2016 5:24 10 51 21.6 86 13.8 1009.4 1.1 3.6 NE 1013.9
47 15/4/2016 5:34 10 52 21.5 86 13.6 1009.5 2.5 3.6 NEE 1014.0
48 15/4/2016 5:44 10 52 21.5 87 13.5 1009.5 0.0 2.5 NEE 1014.0
49 15/4/2016 5:54 10 52 21.5 87 13.5 1009.4 1.1 2.5 NW 1013.9
50 15/4/2016 6:04 10 51 21.4 86 13.5 1009.6 1.1 3.6 NW 1014.1
51 15/4/2016 6:14 10 51 21.4 85 13.5 1009.6 2.5 5.0 NE 1014.1
52 15/4/2016 6:24 10 52 21.3 82 13.7 1009.7 0.0 2.5 SW 1014.2
53 15/4/2016 6:34 10 52 21.3 82 13.5 1009.9 0.0 1.1 SE 1014.4
54 15/4/2016 6:44 10 52 21.3 82 13.3 1010.0 1.1 2.5 E 1014.5
55 15/4/2016 6:54 10 52 21.2 83 13.1 1010.2 0.0 1.1 SW 1014.7
56 15/4/2016 7:04 10 52 21.2 83 12.8 1010.2 0.0 2.5 W 1014.7
57 15/4/2016 7:14 10 52 21.2 84 12.6 1010.4 0.0 1.1 S 1014.9
58 15/4/2016 7:24 10 52 21.2 86 12.6 1010.4 1.1 2.5 E 1014.9
59 15/4/2016 7:34 10 52 21.2 87 12.7 1010.6 0.0 1.1 NE 1015.1
60 15/4/2016 7:44 10 52 21.2 87 13.0 1010.7 0.0 1.1 E 1015.2
61 15/4/2016 7:54 10 53 20.9 87 13.3 1010.8 0.0 1.1 NE 1015.3
62 15/4/2016 8:04 10 52 21.0 87 13.6 1010.9 0.0 1.1 E 1015.4
63 15/4/2016 8:14 10 52 21.0 84 15.5 1011.0 1.1 3.6 E 1015.5
64 15/4/2016 8:24 10 53 21.2 78 17.6 1011.2 0.0 0.0 E 1015.7
65 15/4/2016 8:34 10 54 21.5 69 19.8 1011.3 0.0 2.5 E 1015.8
66 15/4/2016 8:44 10 54 21.8 66 20.8 1011.4 0.0 0.0 E 1015.9
67 15/4/2016 8:54 10 53 22.2 66 20.8 1011.5 0.0 2.5 SW 1016.0
68 15/4/2016 9:04 10 54 22.6 65 21.0 1011.5 1.1 2.5 NE 1016.0
69 15/4/2016 9:14 10 54 22.8 65 21.9 1011.5 0.0 1.1 NE 1016.0
70 15/4/2016 9:24 10 55 23.1 63 22.1 1011.5 1.1 3.6 W 1016.0
71 15/4/2016 9:34 10 55 23.5 63 22.0 1011.6 2.5 5.0 S 1016.1
72 15/4/2016 9:44 10 55 23.7 67 21.5 1011.7 3.6 5.0 SW 1016.2
73 15/4/2016 9:54 10 55 23.8 68 21.4 1011.9 2.5 5.0 NW 1016.4
74 15/4/2016 10:04 10 54 24.0 65 21.6 1012.0 3.6 5.0 S 1016.5
75 15/4/2016 10:14 10 54 24.3 63 21.7 1011.9 5.0 7.2 SW 1016.4
76 15/4/2016 10:24 10 54 24.6 61 22.2 1012.1 3.6 6.1 SW 1016.6
77 15/4/2016 10:34 10 54 24.8 59 22.7 1012.3 5.0 7.2 SE 1016.8
78 15/4/2016 10:44 10 53 25.0 55 22.6 1012.3 5.0 7.2 S 1016.8
79 15/4/2016 10:54 10 51 25.0 53 23.7 1012.4 1.1 3.6 S 1016.9
80 15/4/2016 11:04 10 50 25.1 48 23.9 1012.5 3.6 7.2 S 1017.0
81 15/4/2016 11:14 10 48 25.1 50 23.8 1012.6 3.6 6.1 W 1017.1
82 15/4/2016 11:24 10 48 25.1 51 23.5 1012.7 3.6 6.1 W 1017.2
83 15/4/2016 11:34 10 48 25.1 53 23.2 1012.8 7.2 11.2 S 1017.3
84 15/4/2016 11:44 10 48 25.2 49 23.3 1012.7 5.0 8.6 SEE 1017.2
85 15/4/2016 11:54 10 48 25.1 52 22.8 1012.8 8.6 12.2 S 1017.3
86 15/4/2016 12:04 10 48 25.1 50 22.8 1012.8 7.2 8.6 S 1017.3
87 15/4/2016 12:14 10 48 25.2 49 22.8 1012.8 5.0 7.2 SE 1017.3
88 15/4/2016 12:24 10 47 25.2 49 23.2 1012.9 6.1 8.6 SW 1017.4
89 15/4/2016 12:34 10 46 25.2 47 23.1 1012.9 7.2 11.2 SW 1017.4
90 15/4/2016 12:44 10 46 25.2 46 23.4 1013.1 3.6 7.2 S 1017.6
91 15/4/2016 12:54 10 45 25.2 46 23.8 1013.0 8.6 14.8 SE 1017.5
92 15/4/2016 13:04 10 44 25.3 45 23.8 1013.1 3.6 7.2 S 1017.6
93 15/4/2016 13:14 10 44 25.2 45 23.9 1013.0 6.1 9.7 NW 1017.5
94 15/4/2016 13:24 10 45 25.2 45 24.4 1013.0 8.6 9.7 S 1017.5
95 15/4/2016 13:34 10 45 25.2 49 24.0 1013.0 11.2 13.3 S 1017.5
96 15/4/2016 13:44 10 46 25.2 49 24.7 1013.0 2.5 5.0 W 1017.5
97 15/4/2016 13:54 10 46 25.2 46 24.6 1013.0 6.1 8.6 S 1017.5
98 15/4/2016 14:04 10 45 25.3 43 24.4 1013.0 5.0 7.2 SE 1017.5
99 15/4/2016 14:14 10 44 25.3 42 25.1 1013.0 5.0 7.2 W 1017.5
100 15/4/2016 14:24 10 44 25.3 44 24.5 1013.0 5.0 6.1 S 1017.5
101 15/4/2016 14:34 10 44 25.3 38 24.6 1013.0 7.2 11.2 S 1017.5
102 15/4/2016 14:44 10 44 25.3 41 25.1 1013.1 5.0 7.2 SSW 1017.6
103 15/4/2016 14:54 10 44 25.3 41 25.1 1013.1 7.2 11.2 S 1017.6
104 15/4/2016 15:04 10 44 25.3 37 24.9 1013.2 5.0 8.6 SW 1017.7
105 15/4/2016 15:14 10 44 25.3 43 25.3 1013.1 6.1 11.2 S 1017.6
106 15/4/2016 15:24 10 44 25.4 38 25.9 1013.0 3.6 5.0 SE 1017.5
107 15/4/2016 15:34 10 44 25.4 38 26.0 1013.1 5.0 8.6 S 1017.6
108 15/4/2016 15:44 10 44 25.4 40 25.8 1012.9 2.5 5.0 SW 1017.4
109 15/4/2016 15:54 10 44 25.4 38 26.3 1012.9 6.1 8.6 S 1017.4
110 15/4/2016 16:04 10 44 25.4 42 26.3 1012.9 5.0 8.6 S 1017.4
111 15/4/2016 16:14 10 44 25.4 39 24.7 1012.8 8.6 12.2 SW 1017.3
112 15/4/2016 16:24 10 44 25.4 41 25.3 1012.8 5.0 6.1 NW 1017.3
113 15/4/2016 16:34 10 44 25.5 43 25.9 1012.7 6.1 8.6 SW 1017.2
114 15/4/2016 16:44 10 44 25.5 44 25.8 1012.7 3.6 9.7 SW 1017.2
115 15/4/2016 16:54 10 44 25.5 43 25.8 1012.6 5.0 8.6 S 1017.1
116 15/4/2016 17:04 10 44 25.5 42 26.2 1012.6 3.6 7.2 S 1017.1
117 15/4/2016 17:14 10 44 25.5 34 26.6 1012.7 5.0 7.2 W 1017.2
118 15/4/2016 17:24 10 45 25.5 35 25.9 1012.6 1.1 2.5 S 1017.1
119 15/4/2016 17:34 10 45 25.5 33 26.0 1012.6 2.5 3.6 N 1017.1
120 15/4/2016 17:44 10 45 25.5 34 26.7 1012.6 3.6 7.2 NE 1017.1
121 15/4/2016 17:54 10 45 25.5 34 26.4 1012.7 3.6 5.0 SW 1017.2
122 15/4/2016 18:04 10 45 25.5 36 26.5 1012.7 5.0 8.6 W 1017.2
123 15/4/2016 18:14 10 45 25.5 41 25.8 1012.8 5.0 7.2 --- 1017.3
124 15/4/2016 18:24 10 45 25.5 43 25.9 1012.9 3.6 6.1 --- 1017.4
125 15/4/2016 18:34 10 46 25.5 43 25.8 1013.0 2.5 5.0 NW 1017.5
126 15/4/2016 18:44 10 45 25.4 45 25.0 1013.2 5.0 9.7 S 1017.7
127 15/4/2016 18:54 10 46 25.6 50 24.8 1013.2 3.6 6.1 W 1017.7
128 15/4/2016 19:04 10 47 25.6 54 23.9 1013.4 5.0 8.6 S 1017.9
129 15/4/2016 19:14 10 47 25.5 65 20.9 1013.4 1.1 3.6 S 1017.9
130 15/4/2016 19:24 10 48 25.4 64 21.1 1013.3 1.1 3.6 SW 1017.8
                       
No Time Dewpoint(°C) Windchill(°C) Hour Rainfall(mm) 24 hour Rainfall(mm) Week Rainfall(mm) Month Rainfall(mm) Total Rainfall(mm) Wind Level(bft) Gust Level(bft)
1 14/4/2016 21:54 8.5 17.8 0.0 0.0 0.0 0.0 0.0 2 3
2 14/4/2016 22:04 7.9 16.9 0.0 0.0 0.0 0.0 0.0 2 3
3 14/4/2016 22:14 6.8 17.0 0.0 0.0 0.0 0.0 0.0 2 3
4 14/4/2016 22:24 6.9 18.2 0.0 0.0 0.0 0.0 0.0 2 3
5 14/4/2016 22:34 5.4 18.2 0.0 0.0 0.0 0.0 0.0 2 3
6 14/4/2016 22:44 5.2 19.3 0.0 0.0 0.0 0.0 0.0 2 2
7 14/4/2016 22:54 5.1 19.8 0.0 0.0 0.0 0.0 0.0 2 2
8 14/4/2016 23:04 5.0 19.7 0.0 0.0 0.0 0.0 0.0 1 2
9 14/4/2016 23:14 5.6 19.1 0.0 0.0 0.0 0.0 0.0 0 1
10 14/4/2016 23:24 6.0 18.5 0.0 0.0 0.0 0.0 0.0 1 1
11 14/4/2016 23:34 5.9 18.0 0.0 0.0 0.0 0.0 0.0 0 0
12 14/4/2016 23:44 7.6 16.7 0.0 0.0 0.0 0.0 0.0 2 2
13 14/4/2016 23:54 9.3 15.8 0.0 0.0 0.0 0.0 0.0 1 1
14 15/4/2016 0:04 11.1 15.7 0.0 0.0 0.0 0.0 0.0 1 1
15 15/4/2016 0:14 11.8 15.8 0.0 0.0 0.0 0.0 0.0 1 1
16 15/4/2016 0:24 11.9 15.9 0.0 0.0 0.0 0.0 0.0 1 1
17 15/4/2016 0:34 11.8 16.0 0.0 0.0 0.0 0.0 0.0 1 2
18 15/4/2016 0:44 12.1 16.3 0.0 0.0 0.0 0.0 0.0 2 2
19 15/4/2016 0:54 12.4 16.4 0.0 0.0 0.0 0.0 0.0 2 2
20 15/4/2016 1:04 12.6 16.4 0.0 0.0 0.0 0.0 0.0 2 2
21 15/4/2016 1:14 12.9 16.3 0.0 0.0 0.0 0.0 0.0 1 2
22 15/4/2016 1:24 13.3 16.4 0.0 0.0 0.0 0.0 0.0 1 1
23 15/4/2016 1:34 13.2 16.3 0.0 0.0 0.0 0.0 0.0 1 2
24 15/4/2016 1:44 13.4 16.3 0.0 0.0 0.0 0.0 0.0 1 1
25 15/4/2016 1:54 13.2 16.1 0.0 0.0 0.0 0.0 0.0 1 1
26 15/4/2016 2:04 13.4 15.9 0.0 0.0 0.0 0.0 0.0 1 1
27 15/4/2016 2:14 13.2 15.7 0.0 0.0 0.0 0.0 0.0 1 1
28 15/4/2016 2:24 13.0 15.5 0.0 0.0 0.0 0.0 0.0 1 1
29 15/4/2016 2:34 12.6 15.1 0.0 0.0 0.0 0.0 0.0 1 1
30 15/4/2016 2:44 13.0 15.3 0.0 0.0 0.0 0.0 0.0 1 1
31 15/4/2016 2:54 13.1 15.4 0.0 0.0 0.0 0.0 0.0 0 0
32 15/4/2016 3:04 12.5 15.0 0.0 0.0 0.0 0.0 0.0 0 0
33 15/4/2016 3:14 12.5 14.6 0.0 0.0 0.0 0.0 0.0 0 0
34 15/4/2016 3:24 12.6 14.5 0.0 0.0 0.0 0.0 0.0 0 1
35 15/4/2016 3:34 12.8 14.6 0.0 0.0 0.0 0.0 0.0 1 1
36 15/4/2016 3:44 12.6 14.5 0.0 0.0 0.0 0.0 0.0 1 1
37 15/4/2016 3:54 12.5 14.4 0.0 0.0 0.0 0.0 0.0 1 1
38 15/4/2016 4:04 12.3 14.2 0.0 0.0 0.0 0.0 0.0 1 1
39 15/4/2016 4:14 12.3 14.1 0.0 0.0 0.0 0.0 0.0 1 1
40 15/4/2016 4:24 12.3 14.1 0.0 0.0 0.0 0.0 0.0 1 1
41 15/4/2016 4:34 12.1 14.0 0.0 0.0 0.0 0.0 0.0 1 1
42 15/4/2016 4:44 12.1 14.0 0.0 0.0 0.0 0.0 0.0 0 1
43 15/4/2016 4:54 12.2 14.1 0.0 0.0 0.0 0.0 0.0 1 1
44 15/4/2016 5:04 11.9 14.0 0.0 0.0 0.0 0.0 0.0 1 1
45 15/4/2016 5:14 11.7 13.8 0.0 0.0 0.0 0.0 0.0 1 2
46 15/4/2016 5:24 11.5 13.8 0.0 0.0 0.0 0.0 0.0 1 1
47 15/4/2016 5:34 11.3 13.6 0.0 0.0 0.0 0.0 0.0 1 1
48 15/4/2016 5:44 11.4 13.5 0.0 0.0 0.0 0.0 0.0 0 1
49 15/4/2016 5:54 11.4 13.5 0.0 0.0 0.0 0.0 0.0 1 1
50 15/4/2016 6:04 11.2 13.5 0.0 0.0 0.0 0.0 0.0 1 1
51 15/4/2016 6:14 11.0 13.5 0.0 0.0 0.0 0.0 0.0 1 1
52 15/4/2016 6:24 10.7 13.7 0.0 0.0 0.0 0.0 0.0 0 1
53 15/4/2016 6:34 10.5 13.5 0.0 0.0 0.0 0.0 0.0 0 1
54 15/4/2016 6:44 10.3 13.3 0.0 0.0 0.0 0.0 0.0 1 1
55 15/4/2016 6:54 10.3 13.1 0.0 0.0 0.0 0.0 0.0 0 1
56 15/4/2016 7:04 10.0 12.8 0.0 0.0 0.0 0.0 0.0 0 1
57 15/4/2016 7:14 10.0 12.6 0.0 0.0 0.0 0.0 0.0 0 1
58 15/4/2016 7:24 10.3 12.6 0.0 0.0 0.0 0.0 0.0 1 1
59 15/4/2016 7:34 10.6 12.7 0.0 0.0 0.0 0.0 0.0 0 1
60 15/4/2016 7:44 10.9 13.0 0.0 0.0 0.0 0.0 0.0 0 1
61 15/4/2016 7:54 11.2 13.3 0.0 0.0 0.0 0.0 0.0 0 1
62 15/4/2016 8:04 11.5 13.6 0.0 0.0 0.0 0.0 0.0 0 1
63 15/4/2016 8:14 12.8 15.5 0.0 0.0 0.0 0.0 0.0 1 1
64 15/4/2016 8:24 13.7 17.6 0.0 0.0 0.0 0.0 0.0 0 0
65 15/4/2016 8:34 14.0 19.8 0.0 0.0 0.0 0.0 0.0 0 1
66 15/4/2016 8:44 14.2 20.8 0.0 0.0 0.0 0.0 0.0 0 0
67 15/4/2016 8:54 14.2 20.8 0.0 0.0 0.0 0.0 0.0 0 1
68 15/4/2016 9:04 14.2 21.0 0.0 0.0 0.0 0.0 0.0 1 1
69 15/4/2016 9:14 15.1 21.9 0.0 0.0 0.0 0.0 0.0 0 1
70 15/4/2016 9:24 14.8 22.1 0.0 0.0 0.0 0.0 0.0 1 1
71 15/4/2016 9:34 14.7 22.0 0.0 0.0 0.0 0.0 0.0 1 1
72 15/4/2016 9:44 15.1 21.5 0.0 0.0 0.0 0.0 0.0 1 1
73 15/4/2016 9:54 15.3 21.4 0.0 0.0 0.0 0.0 0.0 1 1
74 15/4/2016 10:04 14.8 21.6 0.0 0.0 0.0 0.0 0.0 1 1
75 15/4/2016 10:14 14.4 21.7 0.0 0.0 0.0 0.0 0.0 1 2
76 15/4/2016 10:24 14.3 22.2 0.0 0.0 0.0 0.0 0.0 1 2
77 15/4/2016 10:34 14.3 22.7 0.0 0.0 0.0 0.0 0.0 1 2
78 15/4/2016 10:44 13.1 22.6 0.0 0.0 0.0 0.0 0.0 1 2
79 15/4/2016 10:54 13.6 23.7 0.0 0.0 0.0 0.0 0.0 1 1
80 15/4/2016 11:04 12.3 23.9 0.0 0.0 0.0 0.0 0.0 1 2
81 15/4/2016 11:14 12.8 23.8 0.0 0.0 0.0 0.0 0.0 1 2
82 15/4/2016 11:24 12.8 23.5 0.0 0.0 0.0 0.0 0.0 1 2
83 15/4/2016 11:34 13.1 22.7 0.0 0.0 0.0 0.0 0.0 2 2
84 15/4/2016 11:44 12.0 23.3 0.0 0.0 0.0 0.0 0.0 1 2
85 15/4/2016 11:54 12.5 21.9 0.0 0.0 0.0 0.0 0.0 2 3
86 15/4/2016 12:04 11.9 22.3 0.0 0.0 0.0 0.0 0.0 2 2
87 15/4/2016 12:14 11.6 22.8 0.0 0.0 0.0 0.0 0.0 1 2
88 15/4/2016 12:24 11.9 23.2 0.0 0.0 0.0 0.0 0.0 2 2
89 15/4/2016 12:34 11.2 22.6 0.0 0.0 0.0 0.0 0.0 2 2
90 15/4/2016 12:44 11.2 23.4 0.0 0.0 0.0 0.0 0.0 1 2
91 15/4/2016 12:54 11.5 23.0 0.0 0.0 0.0 0.0 0.0 2 3
92 15/4/2016 13:04 11.2 23.8 0.0 0.0 0.0 0.0 0.0 1 2
93 15/4/2016 13:14 11.3 23.9 0.0 0.0 0.0 0.0 0.0 2 2
94 15/4/2016 13:24 11.7 23.7 0.0 0.0 0.0 0.0 0.0 2 2
95 15/4/2016 13:34 12.7 22.7 0.0 0.0 0.0 0.0 0.0 2 3
96 15/4/2016 13:44 13.3 24.7 0.0 0.0 0.0 0.0 0.0 1 1
97 15/4/2016 13:54 12.2 24.6 0.0 0.0 0.0 0.0 0.0 2 2
98 15/4/2016 14:04 11.0 24.4 0.0 0.0 0.0 0.0 0.0 1 2
99 15/4/2016 14:14 11.3 25.1 0.0 0.0 0.0 0.0 0.0 1 2
100 15/4/2016 14:24 11.5 24.5 0.0 0.0 0.0 0.0 0.0 1 2
101 15/4/2016 14:34 9.4 24.2 0.0 0.0 0.0 0.0 0.0 2 2
102 15/4/2016 14:44 11.0 25.1 0.0 0.0 0.0 0.0 0.0 1 2
103 15/4/2016 14:54 11.0 24.7 0.0 0.0 0.0 0.0 0.0 2 2
104 15/4/2016 15:04 9.2 24.9 0.0 0.0 0.0 0.0 0.0 1 2
105 15/4/2016 15:14 11.9 25.3 0.0 0.0 0.0 0.0 0.0 2 2
106 15/4/2016 15:24 10.5 25.9 0.0 0.0 0.0 0.0 0.0 1 1
107 15/4/2016 15:34 10.6 26.0 0.0 0.0 0.0 0.0 0.0 1 2
108 15/4/2016 15:44 11.2 25.8 0.0 0.0 0.0 0.0 0.0 1 1
109 15/4/2016 15:54 10.9 26.3 0.0 0.0 0.0 0.0 0.0 2 2
110 15/4/2016 16:04 12.4 26.3 0.0 0.0 0.0 0.0 0.0 1 2
111 15/4/2016 16:14 9.8 24.0 0.0 0.0 0.0 0.0 0.0 2 3
112 15/4/2016 16:24 11.1 25.3 0.0 0.0 0.0 0.0 0.0 1 2
113 15/4/2016 16:34 12.4 25.9 0.0 0.0 0.0 0.0 0.0 2 2
114 15/4/2016 16:44 12.7 25.8 0.0 0.0 0.0 0.0 0.0 1 2
115 15/4/2016 16:54 12.3 25.8 0.0 0.0 0.0 0.0 0.0 1 2
116 15/4/2016 17:04 12.3 26.2 0.0 0.0 0.0 0.0 0.0 1 2
117 15/4/2016 17:14 9.5 26.6 0.0 0.0 0.0 0.0 0.0 1 2
118 15/4/2016 17:24 9.3 25.9 0.0 0.0 0.0 0.0 0.0 1 1
119 15/4/2016 17:34 8.5 26.0 0.0 0.0 0.0 0.0 0.0 1 1
120 15/4/2016 17:44 9.6 26.7 0.0 0.0 0.0 0.0 0.0 1 2
121 15/4/2016 17:54 9.3 26.4 0.0 0.0 0.0 0.0 0.0 1 1
122 15/4/2016 18:04 10.2 26.5 0.0 0.0 0.0 0.0 0.0 1 2
123 15/4/2016 18:14 11.6 25.8 0.0 0.0 0.0 0.0 0.0 1 2
124 15/4/2016 18:24 12.4 25.9 0.0 0.0 0.0 0.0 0.0 1 2
125 15/4/2016 18:34 12.3 25.8 0.0 0.0 0.0 0.0 0.0 1 1
126 15/4/2016 18:44 12.3 25.0 0.0 0.0 0.0 0.0 0.0 1 2
127 15/4/2016 18:54 13.7 24.8 0.0 0.0 0.0 0.0 0.0 1 2
128 15/4/2016 19:04 14.1 23.9 0.0 0.0 0.0 0.0 0.0 1 2
129 15/4/2016 19:14 14.1 20.9 0.0 0.0 0.0 0.0 0.0 1 1
130 15/4/2016 19:24 14.1 21.1 0.0 0.0 0.0 0.0 0.0 1 1